LSZHLIBD

Guest
Details From LSZH - Zurich
To LIBD - Bari Palese Macchie
Flight Number -
Tags decoded
Created
Modified
Stats Distance 519 nm / 960 km
Max Altitude 0 ft / 0 m
Waypoints 6
Social Downloads 0
Likes 0
Share VATSIM

Download

Looking for another format? Having issues loading an existing format? Contact us
Advertisement - Login to hide

Notes

Requested: LSZH ELMUR UQ341 RESIA UN1 VIE UT415 OSDAX LIBD Unmatched points: UQ341 UN1 UT415

Route

LSZH ELMUR RESIA VIE OSDAX LIBD

ID Type Via Altitude Latitude Longitude Leg Dist Tot Dist Heading (true) Name
O LSZH APT - 0 ft / 0 m 47.46349˚ 8.54996˚ - 0 nm - Zurich
ELMUR FIX - 0 ft / 0 m 47.15667˚ 8.90750˚ 23 nm 23 nm 142° / 142° -
RESIA FIX - 0 ft / 0 m 46.47833˚ 10.04333˚ 61 nm 85 nm 131° / 132° -
VIE VOR - 0 ft / 0 m 41.91274˚ 16.04914˚ 376 nm 462 nm 135° / 139° VIESTE VOR-DME
OSDAX FIX - 0 ft / 0 m 41.35806˚ 16.57639˚ 40 nm 502 nm 144° / 145° -
O LIBD APT - 0 ft / 0 m 41.13787˚ 16.75832˚ 15 nm 518 nm 148° / 148° Bari Palese Macchie

Altitude Profile

Advertisement - Login to hide

Weather


0- 5 10 15 20 25 30 35+ Temperature / ° C

Clouds and Precipitation
Forecast for 2017-12-16 12:00 UTC. Updated 11 minutes ago

Ground ~20,000 ft ~40,000 ft Winds

LSZH

Details ICAO LSZH (ZRH)
Name Zurich
Region Switzerland
Timezone Europe/Zurich (UTC+1.0)
Stats Elevation 1,416 ft / 432 m (AMSL)
Location 47.463489° 8.549964°
Runways 3
Magnetic Variation 2.346° E

METAR

LSZH 161120Z 24005KT 190V270 9999 -SHRA FEW009 BKN012 BKN040 02/01 Q1011 R88/29//// TEMPO 4000 SHRASN BKN008

Decode

TAF

TAF LSZH 160825Z 1609/1715 23006KT 7000 FEW004 BKN010 TX03/1614Z TNM00/1705Z TX02/1714Z BECMG 1609/1612 BKN020 TEMPO 1609/1712 2500 SHSN BKN006 TEMPO 1610/1619 4000 SHSNRA BKN007 TEMPO 1621/1708 28007KT TEMPO 1711/1715 29008KT

Decode

Departure Runways

ID Width Length Bearing (true) Bearing (mag) Surface Threshold Offset Overrun Length
10 197 ft / 60 m 8,180 ft / 2,493 m 95.98° 93.63° Concrete 0 ft / 0 m 197 ft / 60 m
14 197 ft / 60 m 10,816 ft / 3,297 m 137.30° 134.95° Concrete 492 ft / 150 m 0 ft / 0 m
16 197 ft / 60 m 12,137 ft / 3,699 m 155.00° 152.65° Concrete 0 ft / 0 m 197 ft / 60 m
28 197 ft / 60 m 8,180 ft / 2,493 m 276.01° 273.66° Concrete 0 ft / 0 m 197 ft / 60 m
32 197 ft / 60 m 10,816 ft / 3,297 m 317.32° 314.97° Concrete 0 ft / 0 m 197 ft / 60 m
34 197 ft / 60 m 12,137 ft / 3,699 m 335.01° 332.66° Concrete 1,542 ft / 470 m 0 ft / 0 m

LIBD

Details ICAO LIBD (BRI)
Name Bari Palese Macchie
Region Italy
Timezone Europe/Rome (UTC+1.0)
Stats Elevation 177 ft / 54 m (AMSL)
Location 41.137865° 16.758318°
Runways 1
Magnetic Variation 3.738° E

METAR

LIBD 161120Z VRB02KT CAVOK 12/04 Q1006

Decode

TAF

TAF LIBD 160500Z 1606/1706 24013KT 9999 SCT030= TAF LIBP 160500Z 1606/1706 23012KT 9999 SCT030 BECMG 1608/1610 VRB05KT BECMG 1616/1618 28012KT TEMPO 1700/1706 4000 TSRA

Decode

Destination Runways

ID Width Length Bearing (true) Bearing (mag) Surface Threshold Offset Overrun Length
07 148 ft / 45 m 9,262 ft / 2,823 m 69.39° 65.65° Asphalt 1,257 ft / 383 m 0 ft / 0 m
25 148 ft / 45 m 9,262 ft / 2,823 m 249.42° 245.68° Asphalt 0 ft / 0 m 194 ft / 59 m

Approach Navaids

Runway Type Ident Frequency Range Bearing (true) Bearing (mag) Slope Elevation
07 Localiser BAP 111.35 MHz 18 nm / 33 km 69.25° 65.51° - 177 ft / 54 m (AMSL)
07 Glidescope BAP 111.35 MHz 10 nm / 19 km 69.25° 65.51° 3.32° 177 ft / 54 m (AMSL)
07 DME BAP 111.35 MHz 18 nm / 33 km - - - 183 ft / 56 m (AMSL)

Popular Alternatives